createdAt,value
2022-10-02T00:00:35.417Z,101972.56
2022-10-02T00:03:19.126Z,101984.53
2022-10-02T00:05:51.682Z,101979.79
2022-10-02T00:08:24.160Z,101966.28
2022-10-02T00:11:23.738Z,101967.46
2022-10-02T00:13:56.290Z,101977.23
2022-10-02T00:16:39.351Z,101982.14
2022-10-02T00:19:07.439Z,101996.98
2022-10-02T00:21:39.348Z,101995.13
2022-10-02T00:24:08.276Z,101999.66
2022-10-02T00:26:50.049Z,102001.17
2022-10-02T00:29:34.738Z,102011.66
2022-10-02T00:32:05.723Z,102019.61
2022-10-02T00:34:48.595Z,102030.08
2022-10-02T00:37:26.546Z,102031.58
2022-10-02T00:40:24.234Z,102034.13
2022-10-02T00:42:51.817Z,102047.63
2022-10-02T00:45:37.713Z,102045.45
2022-10-02T00:48:14.190Z,102047.14
2022-10-02T00:50:47.647Z,102037.63
2022-10-02T00:53:27.289Z,102042.37
2022-10-02T00:56:02.304Z,102040.02
2022-10-02T00:58:42.163Z,102049.66
2022-10-02T01:01:12.597Z,102063.39
2022-10-02T01:03:58.380Z,102056.13
2022-10-02T01:06:27.470Z,102051.06
2022-10-02T01:08:55.842Z,102051.39
2022-10-02T01:11:23.942Z,102048.02
2022-10-02T01:13:51.671Z,102038.41
2022-10-02T01:16:19.656Z,102044.98
2022-10-02T01:18:49.094Z,102043.32
2022-10-02T01:21:23.198Z,102041.98
2022-10-02T01:23:59.877Z,102042.14
2022-10-02T01:26:27.590Z,102045.67
2022-10-02T01:28:55.531Z,102042.47
2022-10-02T01:31:23.706Z,102036.22
2022-10-02T01:33:51.420Z,102028.11
2022-10-02T01:36:19.168Z,102020.79
2022-10-02T01:38:47.065Z,102018.44
2022-10-02T01:41:14.831Z,102029.23
2022-10-02T01:43:56.815Z,102036.65
2022-10-02T01:46:37.244Z,102027.52
2022-10-02T01:49:23.638Z,102023.63
2022-10-02T01:52:19.111Z,102024.32
2022-10-02T01:55:11.423Z,102031.58
2022-10-02T01:57:54.126Z,102030.08
2022-10-02T02:00:24.102Z,102041.09
2022-10-02T02:02:57.388Z,102045.64
2022-10-02T02:05:49.754Z,102044.30
2022-10-02T02:08:24.825Z,102054.40
2022-10-02T02:11:20.154Z,102051.69
2022-10-02T02:14:05.260Z,102060.81
2022-10-02T02:16:34.431Z,102051.69
2022-10-02T02:19:11.974Z,102049.66
2022-10-02T02:22:01.131Z,102057.08
2022-10-02T02:24:42.189Z,102053.02
2022-10-02T02:27:11.377Z,102053.02
2022-10-02T02:29:39.159Z,102049.59
2022-10-02T02:32:08.792Z,102050.12
2022-10-02T02:34:42.378Z,102039.63
2022-10-02T02:37:12.938Z,102046.69
2022-10-02T02:39:49.666Z,102045.87
2022-10-02T02:42:18.199Z,102044.66
2022-10-02T02:45:14.345Z,102041.32
2022-10-02T02:47:46.474Z,102043.52
2022-10-02T02:50:35.394Z,102030.30
2022-10-02T02:53:16.288Z,102030.76
2022-10-02T02:55:52.802Z,102034.33
2022-10-02T02:58:23.888Z,102033.67
2022-10-02T03:00:51.641Z,102029.42
2022-10-02T03:03:19.331Z,102030.11
2022-10-02T03:05:50.070Z,102036.19
2022-10-02T03:08:33.269Z,102041.62
2022-10-02T03:11:07.146Z,102043.28
2022-10-02T03:13:59.986Z,102044.13
2022-10-02T03:16:27.551Z,102042.11
2022-10-02T03:19:21.318Z,102041.42
2022-10-02T03:22:04.275Z,102034.98
2022-10-02T03:25:02.950Z,102034.91
2022-10-02T03:27:35.151Z,102024.29
2022-10-02T03:30:10.603Z,102019.84
2022-10-02T03:32:39.268Z,102037.59
2022-10-02T03:35:08.255Z,102030.17
2022-10-02T03:37:35.942Z,102035.27
2022-10-02T03:40:05.353Z,102027.66
2022-10-02T03:42:34.121Z,102031.25
2022-10-02T03:45:01.873Z,102022.13
2022-10-02T03:47:29.674Z,102029.91
2022-10-02T03:49:57.394Z,102025.34
2022-10-02T03:52:25.304Z,102032.30
2022-10-02T03:54:58.150Z,102031.32
2022-10-02T03:57:26.524Z,102027.91
2022-10-02T03:59:54.028Z,102026.25
2022-10-02T04:02:49.417Z,102029.81
2022-10-02T04:05:22.237Z,102023.70
2022-10-02T04:07:52.930Z,102027.79
2022-10-02T04:10:48.569Z,102025.76
2022-10-02T04:13:36.319Z,102018.34
2022-10-02T04:16:20.247Z,102020.69
2022-10-02T04:18:55.875Z,102019.02
2022-10-02T04:21:33.149Z,102019.35
2022-10-02T04:24:33.047Z,102018.14
2022-10-02T04:27:08.151Z,102014.45
2022-10-02T04:29:39.557Z,102015.98
2022-10-02T04:32:15.451Z,102013.10
2022-10-02T04:34:43.303Z,102012.26
2022-10-02T04:37:22.577Z,102010.59
2022-10-02T04:40:09.423Z,102004.84
2022-10-02T04:42:43.201Z,102009.73
2022-10-02T04:45:29.498Z,102006.04
2022-10-02T04:48:22.214Z,102010.59
2022-10-02T04:51:10.055Z,101992.51
2022-10-02T04:53:40.637Z,101986.39
2022-10-02T04:56:23.149Z,101992.67
2022-10-02T04:59:00.817Z,101997.90
2022-10-02T05:01:59.478Z,102008.56
2022-10-02T05:04:36.071Z,102015.13
2022-10-02T05:07:12.719Z,102017.16
2022-10-02T05:09:53.655Z,102022.23
2022-10-02T05:12:26.102Z,102024.78
2022-10-02T05:15:18.967Z,102022.36
2022-10-02T05:18:04.407Z,102024.91
2022-10-02T05:20:44.068Z,102020.01
2022-10-02T05:23:31.835Z,102018.80
2022-10-02T05:26:14.476Z,102018.47
2022-10-02T05:29:26.824Z,102019.45
2022-10-02T05:32:04.199Z,102014.34
2022-10-02T05:35:02.373Z,102015.33
2022-10-02T05:37:53.475Z,102011.63
2022-10-02T05:40:44.517Z,102016.18
2022-10-02T05:43:44.026Z,102010.42
2022-10-02T05:46:15.922Z,102001.99
2022-10-02T05:48:49.933Z,102002.94
2022-10-02T05:51:41.096Z,101989.89
2022-10-02T05:54:28.602Z,101997.12
2022-10-02T05:57:00.271Z,101983.22
2022-10-02T05:59:37.123Z,101980.02
2022-10-02T06:02:10.485Z,101975.44
2022-10-02T06:04:45.159Z,101971.02
2022-10-02T06:07:14.546Z,101975.93
2022-10-02T06:09:49.697Z,101982.17
2022-10-02T06:12:27.799Z,101981.36
2022-10-02T06:15:00.348Z,101985.38
2022-10-02T06:17:49.249Z,101983.22
2022-10-02T06:20:35.594Z,101989.79
2022-10-02T06:23:07.233Z,101986.46
2022-10-02T06:25:39.570Z,101979.00
2022-10-02T06:28:12.718Z,101980.34
2022-10-02T06:30:42.933Z,101969.33
2022-10-02T06:33:39.987Z,101974.39
2022-10-02T06:36:16.552Z,101972.14
2022-10-02T06:39:06.070Z,101972.27
2022-10-02T06:42:01.550Z,101958.05
2022-10-02T06:44:36.749Z,101968.84
2022-10-02T06:47:26.072Z,101971.38
2022-10-02T06:50:12.521Z,101968.90
2022-10-02T06:52:40.167Z,101970.93
2022-10-02T06:55:21.192Z,101977.89
2022-10-02T06:58:13.822Z,101978.74
2022-10-02T07:01:20.279Z,101976.19
2022-10-02T07:04:21.952Z,101980.67
2022-10-02T07:06:49.578Z,101989.50
2022-10-02T07:09:26.225Z,101977.66
2022-10-02T07:12:30.939Z,101971.32
2022-10-02T07:15:11.167Z,101978.55
2022-10-02T07:18:00.699Z,101969.55
2022-10-02T07:20:44.002Z,101974.20
2022-10-02T07:23:30.765Z,101970.14
2022-10-02T07:26:08.972Z,101954.05
2022-10-02T07:28:46.475Z,101959.35
2022-10-02T07:31:41.668Z,101969.16
2022-10-02T07:34:28.486Z,101956.09
2022-10-02T07:37:18.199Z,101957.06
2022-10-02T07:40:04.621Z,101956.70
2022-10-02T07:43:00.129Z,101955.63
2022-10-02T07:45:43.093Z,101953.01
2022-10-02T07:48:28.840Z,101961.25
2022-10-02T07:51:49.183Z,101959.38
2022-10-02T07:54:34.870Z,101967.62
2022-10-02T07:57:37.778Z,101975.93
2022-10-02T08:00:14.590Z,101976.91
2022-10-02T08:03:02.795Z,101972.23
2022-10-02T08:05:36.705Z,101975.41
2022-10-02T08:08:16.327Z,101973.84
2022-10-02T08:10:45.581Z,101976.84
2022-10-02T08:13:34.850Z,101974.10
2022-10-02T08:16:05.010Z,101971.32
2022-10-02T08:18:40.905Z,101961.12
2022-10-02T08:21:18.094Z,101970.73
2022-10-02T08:24:05.728Z,101966.77
2022-10-02T08:26:40.223Z,101971.58
2022-10-02T08:29:10.555Z,101960.40
2022-10-02T08:31:38.430Z,101960.34
2022-10-02T08:34:19.159Z,101961.38
2022-10-02T08:37:11.594Z,101957.88
2022-10-02T08:39:54.471Z,101964.75
2022-10-02T08:43:00.036Z,101963.54
2022-10-02T08:45:53.854Z,101959.55
2022-10-02T08:48:30.317Z,101960.76
2022-10-02T08:51:31.281Z,101954.02
2022-10-02T08:54:43.135Z,101948.04
2022-10-02T08:57:20.719Z,101959.26
2022-10-02T09:00:13.639Z,101942.09
2022-10-02T09:03:09.117Z,101950.10
2022-10-02T09:05:59.062Z,101939.84
2022-10-02T09:08:41.780Z,101939.77
2022-10-02T09:11:41.028Z,101932.97
2022-10-02T09:14:11.409Z,101928.03
2022-10-02T09:17:11.286Z,101912.56
2022-10-02T09:19:59.211Z,101926.20
2022-10-02T09:22:57.966Z,101922.87
2022-10-02T09:25:49.859Z,101933.33
2022-10-02T09:28:26.513Z,101937.05
2022-10-02T09:31:05.524Z,101917.86
2022-10-02T09:33:51.727Z,101912.56
2022-10-02T09:36:33.652Z,101911.26
2022-10-02T09:39:21.133Z,101918.55
2022-10-02T09:42:04.286Z,101926.30
2022-10-02T09:44:39.883Z,101916.39
2022-10-02T09:47:44.475Z,101923.42
2022-10-02T09:50:46.316Z,101929.17
2022-10-02T09:53:35.691Z,101920.12
2022-10-02T09:56:22.090Z,101919.62
2022-10-02T09:59:11.647Z,101920.38
2022-10-02T10:01:49.176Z,101924.11
2022-10-02T10:05:01.194Z,101910.57
2022-10-02T10:07:35.185Z,101907.13
2022-10-02T10:10:39.574Z,101897.88
2022-10-02T10:13:33.529Z,101892.45
2022-10-02T10:16:07.070Z,101890.40
2022-10-02T10:18:49.001Z,101891.70
2022-10-02T10:21:44.548Z,101892.91
2022-10-02T10:24:24.434Z,101896.22
2022-10-02T10:27:16.470Z,101898.05
2022-10-02T10:30:02.826Z,101888.92
2022-10-02T10:33:08.216Z,101892.26
2022-10-02T10:36:32.839Z,101894.84
2022-10-02T10:39:21.454Z,101900.34
2022-10-02T10:42:04.179Z,101891.34
2022-10-02T10:44:50.700Z,101893.53
2022-10-02T10:47:36.803Z,101889.61
2022-10-02T10:50:36.925Z,101881.70
2022-10-02T10:53:18.219Z,101894.26
2022-10-02T10:56:04.526Z,101895.14
2022-10-02T10:58:46.103Z,101896.64
2022-10-02T11:01:20.338Z,101890.33
2022-10-02T11:03:48.082Z,101892.98
2022-10-02T11:06:41.785Z,101894.29
2022-10-02T11:09:49.288Z,101883.89
2022-10-02T11:12:35.430Z,101880.81
2022-10-02T11:15:44.122Z,101875.68
2022-10-02T11:18:20.576Z,101861.16
2022-10-02T11:21:11.666Z,101863.52
2022-10-02T11:24:14.756Z,101864.77
2022-10-02T11:27:04.382Z,101857.37
2022-10-02T11:29:49.527Z,101860.48
2022-10-02T11:32:40.695Z,101854.07
2022-10-02T11:35:37.552Z,101851.91
2022-10-02T11:38:16.239Z,101855.09
2022-10-02T11:40:46.711Z,101850.70
2022-10-02T11:43:32.855Z,101847.86
2022-10-02T11:46:19.094Z,101835.30
2022-10-02T11:48:53.082Z,101848.12
2022-10-02T11:51:21.921Z,101853.38
2022-10-02T11:54:17.589Z,101847.66
2022-10-02T11:57:04.828Z,101858.35
2022-10-02T11:59:58.432Z,101852.60
2022-10-02T12:03:02.898Z,101850.57
2022-10-02T12:05:54.577Z,101843.09
2022-10-02T12:08:50.198Z,101841.88
2022-10-02T12:11:27.091Z,101849.40
2022-10-02T12:14:02.304Z,101845.73
2022-10-02T12:16:40.544Z,101846.98
2022-10-02T12:20:24.513Z,101838.84
2022-10-02T12:23:13.898Z,101837.49
2022-10-02T12:26:06.321Z,101823.14
2022-10-02T12:28:44.292Z,101827.81
2022-10-02T12:31:33.346Z,101815.06
2022-10-02T12:34:09.094Z,101805.38
2022-10-02T12:37:15.820Z,101806.89
2022-10-02T12:39:48.916Z,101809.34
2022-10-02T12:42:37.701Z,101795.31
2022-10-02T12:45:30.127Z,101790.34
2022-10-02T12:48:37.152Z,101806.95
2022-10-02T12:51:23.208Z,101803.39
2022-10-02T12:54:27.469Z,101806.79
2022-10-02T12:57:04.456Z,101797.21
2022-10-02T12:59:59.467Z,101792.93
2022-10-02T13:03:00.335Z,101796.13
2022-10-02T13:05:51.777Z,101778.61
2022-10-02T13:08:53.480Z,101785.57
2022-10-02T13:11:55.970Z,101781.52
2022-10-02T13:14:38.891Z,101776.94
2022-10-02T13:17:33.251Z,101789.34
2022-10-02T13:20:13.122Z,101798.03
2022-10-02T13:22:46.783Z,101790.12
2022-10-02T13:25:17.287Z,101793.26
2022-10-02T13:28:18.549Z,101789.79
2022-10-02T13:30:56.515Z,101790.64
2022-10-02T13:33:33.362Z,101784.00
2022-10-02T13:36:10.072Z,101772.79
2022-10-02T13:39:03.370Z,101778.51
2022-10-02T13:41:58.058Z,101774.39
2022-10-02T13:44:55.005Z,101765.34
2022-10-02T13:47:25.379Z,101773.70
2022-10-02T13:49:55.191Z,101775.05
2022-10-02T13:52:27.111Z,101773.41
2022-10-02T13:55:24.412Z,101762.72
2022-10-02T13:58:13.011Z,101761.34
2022-10-02T14:00:46.787Z,101769.16
2022-10-02T14:03:22.683Z,101764.48
2022-10-02T14:05:57.825Z,101769.45
2022-10-02T14:08:47.557Z,101754.28
2022-10-02T14:11:59.805Z,101758.34
2022-10-02T14:14:41.104Z,101745.62
2022-10-02T14:17:32.848Z,101746.08
2022-10-02T14:20:15.205Z,101740.22
2022-10-02T14:22:51.920Z,101749.25
2022-10-02T14:25:25.130Z,101742.22
2022-10-02T14:27:55.689Z,101733.12
2022-10-02T14:30:56.267Z,101746.86
2022-10-02T14:34:01.559Z,101739.80
2022-10-02T14:36:35.445Z,101736.92
2022-10-02T14:39:35.912Z,101745.62
2022-10-02T14:42:22.728Z,101738.49
2022-10-02T14:45:12.838Z,101737.15
2022-10-02T14:47:47.501Z,101729.66
2022-10-02T14:50:51.167Z,101741.20
2022-10-02T14:53:37.485Z,101757.72
2022-10-02T14:56:17.167Z,101745.29
2022-10-02T14:58:53.785Z,101746.50
2022-10-02T15:01:23.495Z,101748.13
2022-10-02T15:04:15.694Z,101757.26
2022-10-02T15:07:05.527Z,101753.50
2022-10-02T15:10:08.281Z,101753.37
2022-10-02T15:12:44.663Z,101756.67
2022-10-02T15:15:23.809Z,101752.05
2022-10-02T15:18:10.308Z,101762.39
2022-10-02T15:20:40.336Z,101761.54
2022-10-02T15:23:13.007Z,101769.35
2022-10-02T15:26:12.363Z,101778.38
2022-10-02T15:29:01.141Z,101777.04
2022-10-02T15:31:58.605Z,101784.82
2022-10-02T15:34:37.989Z,101774.78
2022-10-02T15:37:26.219Z,101768.90
2022-10-02T15:40:07.125Z,101777.43
2022-10-02T15:42:57.432Z,101778.94
2022-10-02T15:45:29.198Z,101779.63
2022-10-02T15:48:13.268Z,101772.07
2022-10-02T15:51:15.182Z,101772.85
2022-10-02T15:53:52.698Z,101781.81
2022-10-02T15:56:45.519Z,101787.01
2022-10-02T15:59:31.948Z,101792.60
2022-10-02T16:02:18.911Z,101793.78
2022-10-02T16:05:23.801Z,101798.20
2022-10-02T16:08:00.618Z,101805.52
2022-10-02T16:11:07.216Z,101813.66
2022-10-02T16:13:50.072Z,101824.68
2022-10-02T16:16:51.292Z,101833.63
2022-10-02T16:19:27.743Z,101840.57
2022-10-02T16:22:05.490Z,101847.04
2022-10-02T16:24:45.081Z,101834.09
2022-10-02T16:27:52.702Z,101838.87
2022-10-02T16:30:24.136Z,101841.98
2022-10-02T16:33:11.122Z,101854.66
2022-10-02T16:35:43.955Z,101859.50
2022-10-02T16:38:40.975Z,101854.04
2022-10-02T16:41:32.764Z,101863.26
2022-10-02T16:44:40.912Z,101853.29
2022-10-02T16:47:31.881Z,101861.76
2022-10-02T16:50:18.319Z,101867.34
2022-10-02T16:52:48.937Z,101864.83
2022-10-02T16:55:36.759Z,101869.21
2022-10-02T16:58:27.206Z,101874.44
2022-10-02T17:01:06.273Z,101878.37
2022-10-02T17:03:58.299Z,101886.18
2022-10-02T17:06:33.604Z,101882.81
2022-10-02T17:09:12.911Z,101898.02
2022-10-02T17:12:12.078Z,101905.63
2022-10-02T17:14:48.768Z,101903.51
2022-10-02T17:17:21.720Z,101914.56
2022-10-02T17:19:54.074Z,101918.55
2022-10-02T17:22:27.399Z,101917.60
2022-10-02T17:25:28.307Z,101929.80
2022-10-02T17:27:57.989Z,101931.37
2022-10-02T17:30:28.344Z,101935.81
2022-10-02T17:33:07.730Z,101935.38
2022-10-02T17:35:43.396Z,101939.84
2022-10-02T17:38:34.725Z,101943.46
2022-10-02T17:41:15.500Z,101953.66
2022-10-02T17:43:53.973Z,101952.84
2022-10-02T17:46:43.579Z,101957.78
2022-10-02T17:49:24.162Z,101964.39
2022-10-02T17:52:27.356Z,101954.02
2022-10-02T17:55:22.421Z,101965.96
2022-10-02T17:57:53.797Z,101969.69
2022-10-02T18:00:25.036Z,101978.71
2022-10-02T18:03:08.475Z,101975.34
2022-10-02T18:05:52.198Z,101983.61
2022-10-02T18:08:33.248Z,101977.83
2022-10-02T18:11:27.011Z,101979.43
2022-10-02T18:14:51.885Z,101974.85
2022-10-02T18:17:48.771Z,101981.45
2022-10-02T18:20:35.345Z,101981.75
2022-10-02T18:23:17.934Z,101980.51
2022-10-02T18:25:58.111Z,101981.36
2022-10-02T18:28:53.814Z,101976.42
2022-10-02T18:31:55.818Z,101976.81
2022-10-02T18:34:44.537Z,101985.80
2022-10-02T18:37:46.192Z,101983.29
2022-10-02T18:40:31.142Z,101965.86
2022-10-02T18:43:22.234Z,101975.24
2022-10-02T18:45:57.082Z,101966.94
2022-10-02T18:49:04.370Z,101975.57
2022-10-02T18:51:56.592Z,101978.35
2022-10-02T18:54:40.603Z,101985.58
2022-10-02T18:57:42.589Z,101982.60
2022-10-02T19:00:22.553Z,101979.23
2022-10-02T19:03:19.694Z,101992.80
2022-10-02T19:05:53.528Z,101988.26
2022-10-02T19:08:58.969Z,101984.04
2022-10-02T19:11:30.807Z,101988.48
2022-10-02T19:14:03.321Z,101990.88
2022-10-02T19:16:31.704Z,101986.33
2022-10-02T19:19:13.158Z,101991.27
2022-10-02T19:21:41.246Z,101988.71
2022-10-02T19:24:16.300Z,101988.62
2022-10-02T19:26:46.646Z,102003.03
2022-10-02T19:29:26.499Z,102006.77
2022-10-02T19:31:54.285Z,102006.30
2022-10-02T19:34:25.519Z,102014.12
2022-10-02T19:36:55.508Z,102014.22
2022-10-02T19:39:32.200Z,102019.61
2022-10-02T19:42:02.342Z,102015.07
2022-10-02T19:44:46.412Z,102030.30
2022-10-02T19:47:35.198Z,102031.97
2022-10-02T19:50:02.906Z,102030.70
2022-10-02T19:52:37.033Z,102038.48
2022-10-02T19:55:28.586Z,102039.33
2022-10-02T19:58:02.741Z,102044.13
2022-10-02T20:00:30.448Z,102042.80
2022-10-02T20:02:59.674Z,102050.48
2022-10-02T20:05:32.800Z,102043.05
2022-10-02T20:08:06.556Z,102054.79
2022-10-02T20:10:45.570Z,102067.45
2022-10-02T20:13:22.409Z,102056.95
2022-10-02T20:16:10.812Z,102057.90
2022-10-02T20:18:39.670Z,102060.32
2022-10-02T20:21:09.458Z,102062.58
2022-10-02T20:23:37.175Z,102066.53
2022-10-02T20:26:08.263Z,102069.64
2022-10-02T20:28:41.040Z,102062.90
2022-10-02T20:31:19.498Z,102077.19
2022-10-02T20:33:56.068Z,102074.87
2022-10-02T20:36:34.431Z,102079.67
2022-10-02T20:39:07.183Z,102080.36
2022-10-02T20:42:06.323Z,102079.87
2022-10-02T20:44:35.033Z,102079.35
2022-10-02T20:47:28.978Z,102076.93
2022-10-02T20:50:19.133Z,102084.74
2022-10-02T20:53:06.624Z,102097.10
2022-10-02T20:55:40.283Z,102115.41
2022-10-02T20:58:55.646Z,102132.55
2022-10-02T21:01:35.261Z,102131.37
2022-10-02T21:04:24.694Z,102144.64
2022-10-02T21:07:05.802Z,102147.26
2022-10-02T21:09:43.618Z,102161.32
2022-10-02T21:12:33.809Z,102156.97
2022-10-02T21:15:27.660Z,102161.25
2022-10-02T21:18:33.053Z,102160.63
2022-10-02T21:21:19.383Z,102159.98
2022-10-02T21:23:46.988Z,102166.41
2022-10-02T21:26:49.959Z,102171.03
2022-10-02T21:29:42.103Z,102169.00
2022-10-02T21:32:31.576Z,102162.63
2022-10-02T21:35:09.753Z,102173.12
2022-10-02T21:37:46.540Z,102172.83
2022-10-02T21:40:48.063Z,102179.27
2022-10-02T21:43:47.953Z,102183.16
2022-10-02T21:46:52.579Z,102176.42
2022-10-02T21:49:26.275Z,102178.32
2022-10-02T21:52:05.766Z,102193.69
2022-10-02T21:54:39.491Z,102179.50
2022-10-02T21:57:32.143Z,102176.13
2022-10-02T22:00:10.070Z,102172.73
2022-10-02T22:02:56.578Z,102179.17
2022-10-02T22:05:57.058Z,102199.80
2022-10-02T22:08:52.688Z,102190.35
2022-10-02T22:11:23.859Z,102205.39
2022-10-02T22:14:00.417Z,102197.94
2022-10-02T22:16:37.393Z,102202.84
2022-10-02T22:19:31.972Z,102214.71
2022-10-02T22:22:12.331Z,102216.54
2022-10-02T22:24:45.973Z,102232.14
2022-10-02T22:27:32.104Z,102232.63
2022-10-02T22:29:59.836Z,102230.93
2022-10-02T22:32:52.290Z,102235.67
2022-10-02T22:35:49.895Z,102239.76
2022-10-02T22:38:39.263Z,102241.78
2022-10-02T22:41:26.328Z,102236.35
2022-10-02T22:44:04.378Z,102237.20
2022-10-02T22:46:40.331Z,102240.77
2022-10-02T22:49:16.754Z,102240.61
2022-10-02T22:52:02.648Z,102246.69
2022-10-02T22:54:38.852Z,102248.55
2022-10-02T22:57:09.492Z,102249.89
2022-10-02T22:59:45.996Z,102242.96
2022-10-02T23:02:20.335Z,102247.70
2022-10-02T23:05:03.015Z,102241.65
2022-10-02T23:07:32.178Z,102244.14
2022-10-02T23:10:07.026Z,102242.80
2022-10-02T23:12:36.739Z,102244.82
2022-10-02T23:15:22.885Z,102252.60
2022-10-02T23:18:16.979Z,102251.79
2022-10-02T23:20:51.382Z,102261.92
2022-10-02T23:23:22.322Z,102258.52
2022-10-02T23:25:51.577Z,102255.32
2022-10-02T23:28:33.591Z,102254.80
2022-10-02T23:31:20.122Z,102262.22
2022-10-02T23:34:12.188Z,102259.70
2022-10-02T23:36:48.918Z,102256.49
2022-10-02T23:39:20.943Z,102255.16
2022-10-02T23:41:49.967Z,102258.72
2022-10-02T23:44:25.622Z,102252.45
2022-10-02T23:46:53.252Z,102253.45
2022-10-02T23:49:26.701Z,102255.84
2022-10-02T23:52:04.805Z,102260.75
2022-10-02T23:54:44.960Z,102261.43
2022-10-02T23:57:43.582Z,102262.09
